createdAt,value
2022-11-19T00:01:37.548Z,-1.82
2022-11-19T00:04:07.753Z,-1.78
2022-11-19T00:06:43.315Z,-1.86
2022-11-19T00:09:14.260Z,-1.85
2022-11-19T00:11:59.575Z,-1.91
2022-11-19T00:14:26.281Z,-1.87
2022-11-19T00:16:52.940Z,-1.92
2022-11-19T00:19:19.779Z,-1.99
2022-11-19T00:21:46.617Z,-1.94
2022-11-19T00:24:22.615Z,-1.98
2022-11-19T00:26:49.254Z,-1.94
2022-11-19T00:29:18.148Z,-1.91
2022-11-19T00:31:45.026Z,-2.02
2022-11-19T00:34:12.187Z,-2.05
2022-11-19T00:36:38.842Z,-1.94
2022-11-19T00:39:05.638Z,-1.93
2022-11-19T00:41:34.445Z,-2.00
2022-11-19T00:44:01.064Z,-2.06
2022-11-19T00:46:30.351Z,-2.05
2022-11-19T00:48:58.794Z,-1.99
2022-11-19T00:51:27.973Z,-2.03
2022-11-19T00:54:00.587Z,-2.04
2022-11-19T00:56:27.817Z,-2.07
2022-11-19T00:58:54.894Z,-2.12
2022-11-19T01:01:23.879Z,-2.11
2022-11-19T01:03:50.697Z,-2.12
2022-11-19T01:06:19.824Z,-2.22
2022-11-19T01:08:51.110Z,-2.27
2022-11-19T01:11:20.885Z,-2.29
2022-11-19T01:13:47.689Z,-2.36
2022-11-19T01:16:20.055Z,-2.36
2022-11-19T01:18:48.601Z,-2.42
2022-11-19T01:21:20.199Z,-2.45
2022-11-19T01:23:47.182Z,-2.52
2022-11-19T01:26:15.018Z,-2.56
2022-11-19T01:28:42.219Z,-2.55
2022-11-19T01:31:10.701Z,-2.61
2022-11-19T01:33:38.166Z,-2.63
2022-11-19T01:36:07.504Z,-2.68
2022-11-19T01:38:34.525Z,-2.73
2022-11-19T01:41:01.254Z,-2.82
2022-11-19T01:43:48.395Z,-2.79
2022-11-19T01:46:23.175Z,-2.86
2022-11-19T01:48:54.063Z,-3.01
2022-11-19T01:51:35.609Z,-2.95
2022-11-19T01:54:07.958Z,-3.06
2022-11-19T01:56:35.641Z,-3.11
2022-11-19T01:59:14.801Z,-3.18
2022-11-19T02:01:44.099Z,-3.16
2022-11-19T02:04:11.353Z,-3.20
2022-11-19T02:06:38.033Z,-3.15
2022-11-19T02:09:04.728Z,-3.17
2022-11-19T02:11:37.546Z,-3.19
2022-11-19T02:14:36.519Z,-3.27
2022-11-19T02:17:24.486Z,-3.24
2022-11-19T02:20:16.005Z,-3.25
2022-11-19T02:22:54.658Z,-3.23
2022-11-19T02:25:28.474Z,-3.17
2022-11-19T02:28:04.033Z,-3.02
2022-11-19T02:30:36.855Z,-3.08
2022-11-19T02:33:25.720Z,-3.10
2022-11-19T02:36:10.574Z,-3.07
2022-11-19T02:38:39.719Z,-3.08
2022-11-19T02:41:37.353Z,-3.10
2022-11-19T02:44:31.874Z,-3.13
2022-11-19T02:47:01.678Z,-3.10
2022-11-19T02:49:30.774Z,-3.14
2022-11-19T02:51:57.894Z,-3.20
2022-11-19T02:54:26.574Z,-3.31
2022-11-19T02:56:59.001Z,-3.40
2022-11-19T02:59:54.267Z,-3.46
2022-11-19T03:02:40.418Z,-3.41
2022-11-19T03:05:09.636Z,-3.40
2022-11-19T03:07:36.347Z,-3.39
2022-11-19T03:10:06.011Z,-3.40
2022-11-19T03:12:46.480Z,-3.32
2022-11-19T03:15:46.606Z,-3.40
2022-11-19T03:18:20.099Z,-3.39
2022-11-19T03:21:10.163Z,-3.33
2022-11-19T03:23:42.679Z,-3.31
2022-11-19T03:26:24.303Z,-3.36
2022-11-19T03:28:51.698Z,-3.31
2022-11-19T03:31:20.146Z,-3.35
2022-11-19T03:33:51.823Z,-3.45
2022-11-19T03:36:30.642Z,-3.58
2022-11-19T03:39:00.689Z,-3.59
2022-11-19T03:41:27.885Z,-3.75
2022-11-19T03:43:58.466Z,-3.86
2022-11-19T03:46:26.466Z,-3.97
2022-11-19T03:48:54.813Z,-3.99
2022-11-19T03:51:41.847Z,-4.06
2022-11-19T03:54:08.844Z,-4.18
2022-11-19T03:56:38.078Z,-4.23
2022-11-19T03:59:11.517Z,-4.31
2022-11-19T04:01:38.626Z,-4.37
2022-11-19T04:04:26.302Z,-4.43
2022-11-19T04:06:52.862Z,-4.54
2022-11-19T04:09:19.607Z,-4.50
2022-11-19T04:14:13.942Z,-4.58
2022-11-19T04:16:40.692Z,-4.64
2022-11-19T04:19:07.244Z,-4.66
2022-11-19T04:21:33.880Z,-4.68
2022-11-19T04:24:09.676Z,-4.70
2022-11-19T04:26:43.956Z,-4.74
2022-11-19T04:29:18.414Z,-4.77
2022-11-19T04:31:45.303Z,-4.76
2022-11-19T04:34:12.021Z,-4.77
2022-11-19T04:36:40.311Z,-4.73
2022-11-19T04:39:07.328Z,-4.81
2022-11-19T04:41:37.340Z,-4.84
2022-11-19T04:44:04.187Z,-4.81
2022-11-19T04:46:31.158Z,-4.88
2022-11-19T04:48:59.276Z,-4.93
2022-11-19T04:51:25.925Z,-4.97
2022-11-19T04:53:53.087Z,-5.02
2022-11-19T04:56:19.721Z,-5.03
2022-11-19T04:58:46.319Z,-5.00
2022-11-19T05:01:12.916Z,-4.97
2022-11-19T05:03:39.516Z,-5.06
2022-11-19T05:06:07.487Z,-5.06
2022-11-19T05:08:34.181Z,-5.11
2022-11-19T05:11:00.733Z,-5.11
2022-11-19T05:13:27.257Z,-5.09
2022-11-19T05:15:53.852Z,-5.14
2022-11-19T05:18:20.513Z,-5.26
2022-11-19T05:20:47.746Z,-5.27
2022-11-19T05:23:15.769Z,-5.28
2022-11-19T05:25:44.530Z,-5.26
2022-11-19T05:28:32.854Z,-5.29
2022-11-19T05:31:07.788Z,-5.28
2022-11-19T05:33:34.813Z,-5.25
2022-11-19T05:36:02.349Z,-5.25
2022-11-19T05:38:29.140Z,-5.22
2022-11-19T05:40:57.743Z,-5.31
2022-11-19T05:43:24.387Z,-5.37
2022-11-19T05:45:50.971Z,-5.41
2022-11-19T05:48:17.580Z,-5.41
2022-11-19T05:50:44.201Z,-5.29
2022-11-19T05:53:17.446Z,-5.36
2022-11-19T05:55:51.309Z,-5.33
2022-11-19T05:58:17.970Z,-5.40
2022-11-19T06:00:47.322Z,-5.44
2022-11-19T06:03:15.532Z,-5.50
2022-11-19T06:05:42.106Z,-5.50
2022-11-19T06:08:08.715Z,-5.53
2022-11-19T06:10:35.377Z,-5.51
2022-11-19T06:13:03.946Z,-5.57
2022-11-19T06:15:33.539Z,-5.48
2022-11-19T06:18:00.291Z,-5.54
2022-11-19T06:20:26.910Z,-5.64
2022-11-19T06:22:53.685Z,-5.70
2022-11-19T06:25:23.268Z,-5.78
2022-11-19T06:27:50.047Z,-5.72
2022-11-19T06:30:17.201Z,-5.65
2022-11-19T06:32:43.912Z,-5.73
2022-11-19T06:35:10.639Z,-5.58
2022-11-19T06:37:44.915Z,-5.52
2022-11-19T06:40:12.264Z,-5.60
2022-11-19T06:42:38.924Z,-5.54
2022-11-19T06:45:11.580Z,-5.49
2022-11-19T06:47:39.289Z,-5.52
2022-11-19T06:50:07.588Z,-5.51
2022-11-19T06:52:34.205Z,-5.54
2022-11-19T06:55:00.980Z,-5.60
2022-11-19T06:57:30.105Z,-5.71
2022-11-19T06:59:56.956Z,-5.67
2022-11-19T07:02:27.949Z,-5.64
2022-11-19T07:04:54.595Z,-5.57
2022-11-19T07:07:25.704Z,-5.68
2022-11-19T07:09:52.323Z,-5.74
2022-11-19T07:12:18.944Z,-5.80
2022-11-19T07:14:45.554Z,-5.81
2022-11-19T07:17:12.199Z,-5.82
2022-11-19T07:19:38.814Z,-5.86
2022-11-19T07:22:08.473Z,-5.78
2022-11-19T07:24:35.699Z,-5.65
2022-11-19T07:27:02.328Z,-5.65
2022-11-19T07:29:28.919Z,-5.54
2022-11-19T07:31:55.569Z,-5.61
2022-11-19T07:34:24.735Z,-5.51
2022-11-19T07:36:51.373Z,-5.47
2022-11-19T07:39:18.584Z,-5.58
2022-11-19T07:42:19.016Z,-5.62
2022-11-19T07:44:54.785Z,-5.67
2022-11-19T07:47:23.958Z,-5.68
2022-11-19T07:49:55.357Z,-5.63
2022-11-19T07:52:22.119Z,-5.63
2022-11-19T07:54:50.647Z,-5.51
2022-11-19T07:57:17.266Z,-5.48
2022-11-19T07:59:43.946Z,-5.45
2022-11-19T08:02:12.014Z,-5.31
2022-11-19T08:04:38.880Z,-5.30
2022-11-19T08:07:05.765Z,-5.28
2022-11-19T08:09:32.635Z,-5.25
2022-11-19T08:11:59.266Z,-5.19
2022-11-19T08:14:25.903Z,-5.22
2022-11-19T08:17:15.639Z,-5.23
2022-11-19T08:19:42.252Z,-5.20
2022-11-19T08:22:18.640Z,-5.18
2022-11-19T08:24:45.297Z,-5.08
2022-11-19T08:27:12.910Z,-5.13
2022-11-19T08:29:39.461Z,-5.20
2022-11-19T08:32:08.382Z,-5.21
2022-11-19T08:34:35.008Z,-5.21
2022-11-19T08:37:01.629Z,-5.20
2022-11-19T08:39:28.212Z,-5.20
2022-11-19T08:42:13.447Z,-5.23
2022-11-19T08:44:40.140Z,-5.26
2022-11-19T08:47:06.844Z,-5.30
2022-11-19T08:49:35.843Z,-5.32
2022-11-19T08:52:02.541Z,-5.29
2022-11-19T08:54:29.282Z,-5.30
2022-11-19T08:56:56.028Z,-5.22
2022-11-19T08:59:22.857Z,-5.21
2022-11-19T09:01:50.457Z,-5.10
2022-11-19T09:04:17.489Z,-4.93
2022-11-19T09:06:44.357Z,-4.84
2022-11-19T09:09:10.976Z,-4.70
2022-11-19T09:11:42.711Z,-4.67
2022-11-19T09:14:09.917Z,-4.71
2022-11-19T09:16:36.727Z,-4.66
2022-11-19T09:19:03.317Z,-4.62
2022-11-19T09:21:30.102Z,-4.42
2022-11-19T09:23:56.769Z,-4.41
2022-11-19T09:26:23.381Z,-4.25
2022-11-19T09:28:52.292Z,-4.25
2022-11-19T09:31:20.332Z,-4.27
2022-11-19T09:33:50.226Z,-4.28
2022-11-19T09:36:18.364Z,-4.22
2022-11-19T09:38:48.383Z,-4.27
2022-11-19T09:41:18.155Z,-4.19
2022-11-19T09:44:15.497Z,-4.14
2022-11-19T09:47:03.616Z,-4.18
2022-11-19T09:50:07.715Z,-4.23
2022-11-19T09:52:36.443Z,-4.17
2022-11-19T09:55:03.473Z,-4.13
2022-11-19T09:57:56.554Z,-4.10
2022-11-19T10:00:26.290Z,-4.08
2022-11-19T10:02:53.656Z,-4.10
2022-11-19T10:05:29.512Z,-4.16
2022-11-19T10:08:36.775Z,-4.15
2022-11-19T10:11:37.420Z,-4.13
2022-11-19T10:14:05.108Z,-4.17
2022-11-19T10:16:53.192Z,-4.16
2022-11-19T10:19:57.014Z,-4.10
2022-11-19T10:22:39.914Z,-4.14
2022-11-19T10:25:16.754Z,-4.15
2022-11-19T10:27:56.854Z,-4.06
2022-11-19T10:30:25.665Z,-4.03
2022-11-19T10:33:18.775Z,-3.87
2022-11-19T10:35:52.786Z,-3.86
2022-11-19T10:38:50.951Z,-3.86
2022-11-19T10:41:47.790Z,-3.86
2022-11-19T10:44:40.978Z,-3.79
2022-11-19T10:47:16.762Z,-3.73
2022-11-19T10:49:44.014Z,-3.73
2022-11-19T10:52:35.652Z,-3.75
2022-11-19T10:55:20.951Z,-3.77
2022-11-19T10:57:48.968Z,-3.75
2022-11-19T11:00:17.347Z,-3.76
2022-11-19T11:02:52.416Z,-3.78
2022-11-19T11:05:19.609Z,-3.82
2022-11-19T11:07:50.504Z,-3.77
2022-11-19T11:10:44.229Z,-3.72
2022-11-19T11:13:35.812Z,-3.71
2022-11-19T11:16:07.640Z,-3.73
2022-11-19T11:18:35.548Z,-3.70
2022-11-19T11:21:02.422Z,-3.68
2022-11-19T11:23:30.430Z,-3.64
2022-11-19T11:26:07.211Z,-3.62
2022-11-19T11:28:34.465Z,-3.57
2022-11-19T11:31:05.854Z,-3.53
2022-11-19T11:33:35.481Z,-3.52
2022-11-19T11:36:06.356Z,-3.45
2022-11-19T11:38:40.445Z,-3.40
2022-11-19T11:42:02.010Z,-3.40
2022-11-19T11:44:02.856Z,-3.45
2022-11-19T11:46:40.123Z,-3.50
2022-11-19T11:49:12.565Z,-3.53
2022-11-19T11:51:42.098Z,-3.57
2022-11-19T11:54:20.026Z,-3.60
2022-11-19T11:56:47.086Z,-3.52
2022-11-19T11:59:15.944Z,-3.53
2022-11-19T12:01:43.138Z,-3.47
2022-11-19T12:04:12.786Z,-3.40
2022-11-19T12:07:06.288Z,-3.35
2022-11-19T12:10:05.531Z,-3.29
2022-11-19T12:13:01.444Z,-3.22
2022-11-19T12:15:56.815Z,-3.12
2022-11-19T12:18:48.322Z,-3.08
2022-11-19T12:21:31.316Z,-3.04
2022-11-19T12:24:25.705Z,-3.01
2022-11-19T12:27:02.837Z,-2.92
2022-11-19T12:29:50.335Z,-2.88
2022-11-19T12:32:38.524Z,-2.82
2022-11-19T12:35:39.080Z,-2.78
2022-11-19T12:38:54.226Z,-2.69
2022-11-19T12:41:39.094Z,-2.60
2022-11-19T12:44:28.733Z,-2.55
2022-11-19T12:47:18.624Z,-2.45
2022-11-19T12:49:54.007Z,-2.35
2022-11-19T12:52:54.873Z,-2.31
2022-11-19T12:55:36.642Z,-2.33
2022-11-19T12:58:25.148Z,-2.36
2022-11-19T13:00:57.228Z,-2.35
2022-11-19T13:03:37.815Z,-2.36
2022-11-19T13:06:12.936Z,-2.35
2022-11-19T13:08:47.419Z,-2.34
2022-11-19T13:11:23.706Z,-2.35
2022-11-19T13:13:55.259Z,-2.28
2022-11-19T13:16:22.790Z,-2.37
2022-11-19T13:18:52.115Z,-2.42
2022-11-19T13:21:39.047Z,-2.48
2022-11-19T13:24:27.140Z,-2.47
2022-11-19T13:26:58.588Z,-2.35
2022-11-19T13:29:56.977Z,-2.46
2022-11-19T13:32:30.286Z,-2.43
2022-11-19T13:34:58.866Z,-2.46
2022-11-19T13:37:44.014Z,-2.56
2022-11-19T13:40:16.719Z,-2.57
2022-11-19T13:43:25.372Z,-2.57
2022-11-19T13:46:06.823Z,-2.66
2022-11-19T13:48:39.573Z,-2.73
2022-11-19T13:51:09.786Z,-2.73
2022-11-19T13:53:40.694Z,-2.76
2022-11-19T13:56:13.833Z,-2.79
2022-11-19T13:58:47.053Z,-2.82
2022-11-19T14:01:27.962Z,-2.80
2022-11-19T14:04:24.258Z,-2.86
2022-11-19T14:07:09.781Z,-2.82
2022-11-19T14:09:52.181Z,-2.85
2022-11-19T14:12:24.915Z,-2.73
2022-11-19T14:15:20.388Z,-2.68
2022-11-19T14:18:24.614Z,-2.67
2022-11-19T14:21:09.728Z,-2.62
2022-11-19T14:23:54.890Z,-2.64
2022-11-19T14:26:39.602Z,-2.63
2022-11-19T14:29:18.748Z,-2.63
2022-11-19T14:32:07.738Z,-2.59
2022-11-19T14:35:02.912Z,-2.67
2022-11-19T14:37:45.583Z,-2.81
2022-11-19T14:40:17.202Z,-2.91
2022-11-19T14:43:25.213Z,-2.98
2022-11-19T14:46:01.677Z,-3.09
2022-11-19T14:48:55.158Z,-3.15
2022-11-19T14:51:39.232Z,-3.23
2022-11-19T14:54:14.958Z,-3.19
2022-11-19T14:56:45.586Z,-3.20
2022-11-19T14:59:15.313Z,-3.22
2022-11-19T15:02:14.082Z,-3.28
2022-11-19T15:05:06.733Z,-3.38
2022-11-19T15:07:34.994Z,-3.38
2022-11-19T15:10:13.718Z,-3.44
2022-11-19T15:12:43.390Z,-3.51
2022-11-19T15:15:19.091Z,-3.61
2022-11-19T15:18:00.624Z,-3.60
2022-11-19T15:20:50.598Z,-3.72
2022-11-19T15:23:26.244Z,-3.77
2022-11-19T15:26:30.382Z,-3.77
2022-11-19T15:29:04.605Z,-3.86
2022-11-19T15:31:42.991Z,-3.93
2022-11-19T15:34:48.679Z,-3.98
2022-11-19T15:37:23.014Z,-3.95
2022-11-19T15:39:52.464Z,-3.99
2022-11-19T15:42:26.807Z,-3.94
2022-11-19T15:44:55.662Z,-3.78
2022-11-19T15:47:31.391Z,-3.86
2022-11-19T15:49:58.522Z,-3.88
2022-11-19T15:52:32.498Z,-3.77
2022-11-19T15:55:20.119Z,-3.84
2022-11-19T15:57:50.120Z,-3.95
2022-11-19T16:00:21.696Z,-4.05
2022-11-19T16:02:50.047Z,-4.12
2022-11-19T16:05:29.715Z,-4.18
2022-11-19T16:07:57.048Z,-4.21
2022-11-19T16:10:31.431Z,-4.25
2022-11-19T16:13:18.768Z,-4.22
2022-11-19T16:16:07.608Z,-4.18
2022-11-19T16:18:44.075Z,-4.29
2022-11-19T16:21:13.775Z,-4.33
2022-11-19T16:24:00.445Z,-4.31
2022-11-19T16:26:27.375Z,-4.38
2022-11-19T16:28:53.998Z,-4.34
2022-11-19T16:31:20.583Z,-4.27
2022-11-19T16:33:53.401Z,-4.29
2022-11-19T16:36:20.435Z,-4.39
2022-11-19T16:38:48.653Z,-4.44
2022-11-19T16:41:38.992Z,-4.48
2022-11-19T16:44:14.274Z,-4.53
2022-11-19T16:46:41.039Z,-4.40
2022-11-19T16:49:49.126Z,-4.49
2022-11-19T16:52:35.251Z,-4.48
2022-11-19T16:55:06.500Z,-4.48
2022-11-19T16:57:33.131Z,-4.45
2022-11-19T17:00:13.320Z,-4.48
2022-11-19T17:02:40.564Z,-4.56
2022-11-19T17:05:10.051Z,-4.56
2022-11-19T17:07:36.814Z,-4.52
2022-11-19T17:10:31.343Z,-4.54
2022-11-19T17:12:58.169Z,-4.60
2022-11-19T17:15:44.246Z,-4.61
2022-11-19T17:18:21.036Z,-4.64
2022-11-19T17:20:50.521Z,-4.70
2022-11-19T17:23:21.053Z,-4.70
2022-11-19T17:26:01.777Z,-4.70
2022-11-19T17:28:36.117Z,-4.70
2022-11-19T17:31:41.441Z,-4.69
2022-11-19T17:34:14.021Z,-4.69
2022-11-19T17:36:42.478Z,-4.71
2022-11-19T17:39:10.444Z,-4.63
2022-11-19T17:41:56.360Z,-4.64
2022-11-19T17:44:36.003Z,-4.66
2022-11-19T17:47:21.303Z,-4.71
2022-11-19T17:49:49.443Z,-4.79
2022-11-19T17:52:23.973Z,-4.83
2022-11-19T17:54:53.478Z,-4.89
2022-11-19T17:57:20.042Z,-4.94
2022-11-19T17:59:46.687Z,-4.97
2022-11-19T18:02:18.279Z,-4.98
2022-11-19T18:04:45.643Z,-4.95
2022-11-19T18:07:13.078Z,-4.98
2022-11-19T18:09:40.764Z,-4.98
2022-11-19T18:12:12.389Z,-4.99
2022-11-19T18:14:40.413Z,-4.98
2022-11-19T18:17:14.584Z,-4.99
2022-11-19T18:19:41.348Z,-4.97
2022-11-19T18:22:13.535Z,-4.90
2022-11-19T18:24:40.151Z,-4.87
2022-11-19T18:27:06.806Z,-4.81
2022-11-19T18:29:33.623Z,-4.81
2022-11-19T18:32:00.318Z,-4.83
2022-11-19T18:34:26.967Z,-4.84
2022-11-19T18:36:54.228Z,-4.84
2022-11-19T18:39:21.336Z,-4.87
2022-11-19T18:41:48.126Z,-4.83
2022-11-19T18:44:34.479Z,-4.82
2022-11-19T18:47:10.326Z,-4.78
2022-11-19T18:49:37.797Z,-4.76
2022-11-19T18:52:09.100Z,-4.81
2022-11-19T18:54:35.758Z,-4.83
2022-11-19T18:57:05.224Z,-4.83
2022-11-19T18:59:31.862Z,-4.82
2022-11-19T19:01:58.595Z,-4.83
2022-11-19T19:04:25.344Z,-4.84
2022-11-19T19:06:52.169Z,-4.85
2022-11-19T19:09:20.498Z,-4.85
2022-11-19T19:12:12.982Z,-4.85
2022-11-19T19:14:41.512Z,-4.83
2022-11-19T19:17:08.182Z,-4.85
2022-11-19T19:19:35.110Z,-4.88
2022-11-19T19:22:02.471Z,-4.86
2022-11-19T19:24:29.440Z,-4.86
2022-11-19T19:26:56.098Z,-4.86
2022-11-19T19:29:22.939Z,-4.85
2022-11-19T19:31:53.749Z,-4.86
2022-11-19T19:34:20.559Z,-4.82
2022-11-19T19:36:52.714Z,-4.84
2022-11-19T19:39:20.339Z,-4.83
2022-11-19T19:41:49.591Z,-4.81
2022-11-19T19:44:16.520Z,-4.84
2022-11-19T19:46:46.639Z,-4.82
2022-11-19T19:49:13.461Z,-4.85
2022-11-19T19:51:49.293Z,-4.89
2022-11-19T19:54:16.280Z,-4.91
2022-11-19T19:56:46.142Z,-4.92
2022-11-19T19:59:20.685Z,-4.93
2022-11-19T20:01:47.810Z,-4.91
2022-11-19T20:04:14.620Z,-4.88
2022-11-19T20:06:52.494Z,-4.90
2022-11-19T20:09:19.239Z,-4.85
2022-11-19T20:11:45.955Z,-4.90
2022-11-19T20:14:20.130Z,-4.93
2022-11-19T20:16:47.151Z,-4.86
2022-11-19T20:19:16.271Z,-4.83
2022-11-19T20:21:52.318Z,-4.83
2022-11-19T20:24:20.083Z,-4.85
2022-11-19T20:26:46.764Z,-4.87
2022-11-19T20:29:22.001Z,-4.89
2022-11-19T20:31:50.097Z,-4.84
2022-11-19T20:34:17.100Z,-4.87
2022-11-19T20:36:44.242Z,-4.89
2022-11-19T20:39:13.558Z,-4.88
2022-11-19T20:42:01.711Z,-4.86
2022-11-19T20:44:28.481Z,-4.87
2022-11-19T20:47:00.239Z,-4.86
2022-11-19T20:49:29.163Z,-4.92
2022-11-19T20:51:56.302Z,-4.97
2022-11-19T20:54:24.154Z,-5.02
2022-11-19T20:56:51.583Z,-5.04
2022-11-19T20:59:28.761Z,-5.04
2022-11-19T21:01:56.480Z,-5.02
2022-11-19T21:04:25.024Z,-4.98
2022-11-19T21:07:00.963Z,-5.00
2022-11-19T21:09:27.777Z,-5.02
2022-11-19T21:11:54.457Z,-5.02
2022-11-19T21:14:29.942Z,-5.03
2022-11-19T21:16:56.607Z,-5.01
2022-11-19T21:19:23.679Z,-4.95
2022-11-19T21:21:50.600Z,-4.91
2022-11-19T21:24:17.310Z,-4.93
2022-11-19T21:26:47.577Z,-4.93
2022-11-19T21:29:14.377Z,-4.94
2022-11-19T21:31:48.401Z,-4.97
2022-11-19T21:34:20.630Z,-4.99
2022-11-19T21:36:48.443Z,-4.84
2022-11-19T21:39:16.645Z,-4.87
2022-11-19T21:41:50.990Z,-4.91
2022-11-19T21:44:21.480Z,-4.94
2022-11-19T21:46:48.855Z,-4.95
2022-11-19T21:49:19.054Z,-4.90
2022-11-19T21:51:46.283Z,-4.90
2022-11-19T21:54:13.216Z,-4.85
2022-11-19T21:56:52.032Z,-4.88
2022-11-19T21:59:18.888Z,-4.87
2022-11-19T22:01:54.391Z,-4.87
2022-11-19T22:04:21.902Z,-4.91
2022-11-19T22:06:48.841Z,-4.96
2022-11-19T22:09:15.726Z,-4.99
2022-11-19T22:11:42.422Z,-4.98
2022-11-19T22:14:16.611Z,-4.95
2022-11-19T22:16:46.545Z,-4.88
2022-11-19T22:19:13.901Z,-4.79
2022-11-19T22:21:43.610Z,-4.71
2022-11-19T22:24:14.307Z,-4.72
2022-11-19T22:26:43.548Z,-4.61
2022-11-19T22:29:13.319Z,-4.72
2022-11-19T22:31:46.735Z,-4.68
2022-11-19T22:34:13.736Z,-4.49
2022-11-19T22:36:43.733Z,-4.52
2022-11-19T22:39:36.220Z,-4.50
2022-11-19T22:42:03.627Z,-4.58
2022-11-19T22:44:30.275Z,-4.64
2022-11-19T22:46:58.636Z,-4.69
2022-11-19T22:49:33.142Z,-4.68
2022-11-19T22:51:59.913Z,-4.63
2022-11-19T22:54:26.657Z,-4.50
2022-11-19T22:56:58.923Z,-4.43
2022-11-19T22:59:25.688Z,-4.59
2022-11-19T23:01:52.475Z,-4.56
2022-11-19T23:04:19.136Z,-4.56
2022-11-19T23:06:45.775Z,-4.70
2022-11-19T23:09:15.780Z,-4.85
2022-11-19T23:12:01.332Z,-4.93
2022-11-19T23:14:30.046Z,-5.00
2022-11-19T23:16:56.795Z,-5.04
2022-11-19T23:19:30.556Z,-5.00
2022-11-19T23:21:57.215Z,-4.91
2022-11-19T23:24:24.027Z,-4.90
2022-11-19T23:26:50.947Z,-4.89
2022-11-19T23:29:17.735Z,-4.83
2022-11-19T23:31:51.897Z,-4.69
2022-11-19T23:34:18.679Z,-4.65
2022-11-19T23:36:46.965Z,-4.64
2022-11-19T23:39:22.991Z,-4.70
2022-11-19T23:41:50.062Z,-4.78
2022-11-19T23:44:19.975Z,-4.79
2022-11-19T23:46:49.197Z,-4.82
2022-11-19T23:49:16.208Z,-4.85
2022-11-19T23:51:43.278Z,-4.81
2022-11-19T23:54:12.010Z,-4.82
2022-11-19T23:56:46.253Z,-4.86
2022-11-19T23:59:13.045Z,-4.84
